sensor_id;sensor_type;location;lat;lon;timestamp;temperature;humidity
14349;DHT22;7258;50.376;8.742;2022-08-25T00:00:02;19.40;90.50
14349;DHT22;7258;50.376;8.742;2022-08-25T00:02:06;19.30;90.50
14349;DHT22;7258;50.376;8.742;2022-08-25T00:04:12;19.30;90.60
14349;DHT22;7258;50.376;8.742;2022-08-25T00:06:16;19.30;90.70
14349;DHT22;7258;50.376;8.742;2022-08-25T00:08:18;19.30;90.80
14349;DHT22;7258;50.376;8.742;2022-08-25T00:10:21;19.30;90.90
14349;DHT22;7258;50.376;8.742;2022-08-25T00:12:24;19.30;91.10
14349;DHT22;7258;50.376;8.742;2022-08-25T00:14:30;19.30;91.00
14349;DHT22;7258;50.376;8.742;2022-08-25T00:16:35;19.30;91.10
14349;DHT22;7258;50.376;8.742;2022-08-25T00:18:39;19.20;91.20
14349;DHT22;7258;50.376;8.742;2022-08-25T00:20:42;19.20;91.30
14349;DHT22;7258;50.376;8.742;2022-08-25T00:22:49;19.20;91.50
14349;DHT22;7258;50.376;8.742;2022-08-25T00:24:53;19.10;91.50
14349;DHT22;7258;50.376;8.742;2022-08-25T00:26:57;19.10;92.00
14349;DHT22;7258;50.376;8.742;2022-08-25T00:29:00;19.00;91.70
14349;DHT22;7258;50.376;8.742;2022-08-25T00:31:04;19.00;91.80
14349;DHT22;7258;50.376;8.742;2022-08-25T00:33:09;18.90;92.00
14349;DHT22;7258;50.376;8.742;2022-08-25T00:35:12;18.90;92.10
14349;DHT22;7258;50.376;8.742;2022-08-25T00:37:18;18.90;92.00
14349;DHT22;7258;50.376;8.742;2022-08-25T00:39:23;18.90;92.10
14349;DHT22;7258;50.376;8.742;2022-08-25T00:41:26;18.90;92.10
14349;DHT22;7258;50.376;8.742;2022-08-25T00:43:35;18.80;92.10
14349;DHT22;7258;50.376;8.742;2022-08-25T00:45:46;18.80;92.10
14349;DHT22;7258;50.376;8.742;2022-08-25T00:47:49;18.70;92.30
14349;DHT22;7258;50.376;8.742;2022-08-25T00:49:56;18.70;92.30
14349;DHT22;7258;50.376;8.742;2022-08-25T00:52:03;18.70;92.40
14349;DHT22;7258;50.376;8.742;2022-08-25T00:54:10;18.70;92.50
14349;DHT22;7258;50.376;8.742;2022-08-25T00:56:14;18.60;92.60
14349;DHT22;7258;50.376;8.742;2022-08-25T00:58:23;18.60;92.70
14349;DHT22;7258;50.376;8.742;2022-08-25T01:00:32;18.50;92.90
14349;DHT22;7258;50.376;8.742;2022-08-25T01:02:35;18.50;93.10
14349;DHT22;7258;50.376;8.742;2022-08-25T01:04:39;18.50;93.10
14349;DHT22;7258;50.376;8.742;2022-08-25T01:06:51;18.50;93.20
14349;DHT22;7258;50.376;8.742;2022-08-25T01:08:55;18.50;93.30
14349;DHT22;7258;50.376;8.742;2022-08-25T01:11:00;18.40;93.40
14349;DHT22;7258;50.376;8.742;2022-08-25T01:13:06;18.40;93.50
14349;DHT22;7258;50.376;8.742;2022-08-25T01:15:17;18.40;93.60
14349;DHT22;7258;50.376;8.742;2022-08-25T01:17:22;18.30;93.70
14349;DHT22;7258;50.376;8.742;2022-08-25T01:19:29;18.30;93.80
14349;DHT22;7258;50.376;8.742;2022-08-25T01:21:40;18.30;93.90
14349;DHT22;7258;50.376;8.742;2022-08-25T01:23:44;18.30;94.10
14349;DHT22;7258;50.376;8.742;2022-08-25T01:25:52;18.20;94.20
14349;DHT22;7258;50.376;8.742;2022-08-25T01:27:59;18.20;94.40
14349;DHT22;7258;50.376;8.742;2022-08-25T01:30:02;18.10;94.60
14349;DHT22;7258;50.376;8.742;2022-08-25T01:32:07;18.10;94.70
14349;DHT22;7258;50.376;8.742;2022-08-25T01:34:11;18.20;94.80
14349;DHT22;7258;50.376;8.742;2022-08-25T01:36:16;18.10;94.90
14349;DHT22;7258;50.376;8.742;2022-08-25T01:38:21;18.10;94.90
14349;DHT22;7258;50.376;8.742;2022-08-25T01:40:24;18.10;95.00
14349;DHT22;7258;50.376;8.742;2022-08-25T01:42:33;18.10;95.20
14349;DHT22;7258;50.376;8.742;2022-08-25T01:44:41;18.10;95.20
14349;DHT22;7258;50.376;8.742;2022-08-25T01:46:45;18.10;95.30
14349;DHT22;7258;50.376;8.742;2022-08-25T01:48:48;18.10;95.30
14349;DHT22;7258;50.376;8.742;2022-08-25T01:50:51;18.10;95.30
14349;DHT22;7258;50.376;8.742;2022-08-25T01:52:58;18.10;95.50
14349;DHT22;7258;50.376;8.742;2022-08-25T01:55:03;18.10;95.50
14349;DHT22;7258;50.376;8.742;2022-08-25T01:57:10;18.10;95.50
14349;DHT22;7258;50.376;8.742;2022-08-25T01:59:16;18.00;95.50
14349;DHT22;7258;50.376;8.742;2022-08-25T02:01:27;18.00;95.70
14349;DHT22;7258;50.376;8.742;2022-08-25T02:03:31;18.00;95.80
14349;DHT22;7258;50.376;8.742;2022-08-25T02:05:34;17.90;95.80
14349;DHT22;7258;50.376;8.742;2022-08-25T02:07:39;17.90;95.90
14349;DHT22;7258;50.376;8.742;2022-08-25T02:09:42;17.90;96.00
14349;DHT22;7258;50.376;8.742;2022-08-25T02:11:47;17.80;96.10
14349;DHT22;7258;50.376;8.742;2022-08-25T02:13:50;17.80;96.30
14349;DHT22;7258;50.376;8.742;2022-08-25T02:15:55;17.80;96.40
14349;DHT22;7258;50.376;8.742;2022-08-25T02:17:59;17.80;96.50
14349;DHT22;7258;50.376;8.742;2022-08-25T02:20:04;17.80;96.60
14349;DHT22;7258;50.376;8.742;2022-08-25T02:22:09;17.70;96.60
14349;DHT22;7258;50.376;8.742;2022-08-25T02:24:13;17.70;96.70
14349;DHT22;7258;50.376;8.742;2022-08-25T02:26:16;17.70;96.80
14349;DHT22;7258;50.376;8.742;2022-08-25T02:28:21;17.70;97.00
14349;DHT22;7258;50.376;8.742;2022-08-25T02:30:28;17.70;97.10
14349;DHT22;7258;50.376;8.742;2022-08-25T02:32:31;17.70;97.20
14349;DHT22;7258;50.376;8.742;2022-08-25T02:34:34;17.70;97.30
14349;DHT22;7258;50.376;8.742;2022-08-25T02:36:38;17.70;97.60
14349;DHT22;7258;50.376;8.742;2022-08-25T02:38:41;17.70;97.60
14349;DHT22;7258;50.376;8.742;2022-08-25T02:40:44;17.70;97.60
14349;DHT22;7258;50.376;8.742;2022-08-25T02:42:47;17.70;97.70
14349;DHT22;7258;50.376;8.742;2022-08-25T02:44:52;17.70;97.80
14349;DHT22;7258;50.376;8.742;2022-08-25T02:46:56;17.70;97.80
14349;DHT22;7258;50.376;8.742;2022-08-25T02:48:59;17.70;97.80
14349;DHT22;7258;50.376;8.742;2022-08-25T02:51:06;17.70;97.80
14349;DHT22;7258;50.376;8.742;2022-08-25T02:53:09;17.70;98.10
14349;DHT22;7258;50.376;8.742;2022-08-25T02:55:13;17.70;98.10
14349;DHT22;7258;50.376;8.742;2022-08-25T02:57:16;17.60;98.00
14349;DHT22;7258;50.376;8.742;2022-08-25T02:59:19;17.70;98.20
14349;DHT22;7258;50.376;8.742;2022-08-25T03:01:23;17.60;98.20
14349;DHT22;7258;50.376;8.742;2022-08-25T03:03:29;17.60;98.30
14349;DHT22;7258;50.376;8.742;2022-08-25T03:05:39;17.50;98.60
14349;DHT22;7258;50.376;8.742;2022-08-25T03:07:43;17.50;98.80
14349;DHT22;7258;50.376;8.742;2022-08-25T03:09:46;17.50;98.90
14349;DHT22;7258;50.376;8.742;2022-08-25T03:11:51;17.50;99.00
14349;DHT22;7258;50.376;8.742;2022-08-25T03:13:55;17.50;99.10
14349;DHT22;7258;50.376;8.742;2022-08-25T03:15:58;17.40;99.20
14349;DHT22;7258;50.376;8.742;2022-08-25T03:18:08;17.40;99.30
14349;DHT22;7258;50.376;8.742;2022-08-25T03:20:14;17.30;99.50
14349;DHT22;7258;50.376;8.742;2022-08-25T03:22:18;17.30;99.60
14349;DHT22;7258;50.376;8.742;2022-08-25T03:24:22;17.30;99.70
14349;DHT22;7258;50.376;8.742;2022-08-25T03:26:25;17.30;99.70
14349;DHT22;7258;50.376;8.742;2022-08-25T03:29:01;17.30;99.80
14349;DHT22;7258;50.376;8.742;2022-08-25T03:31:06;17.20;99.90
14349;DHT22;7258;50.376;8.742;2022-08-25T03:33:11;17.20;99.90
14349;DHT22;7258;50.376;8.742;2022-08-25T03:35:14;17.10;99.90
14349;DHT22;7258;50.376;8.742;2022-08-25T03:37:17;17.10;99.90
14349;DHT22;7258;50.376;8.742;2022-08-25T03:39:22;17.10;99.90
14349;DHT22;7258;50.376;8.742;2022-08-25T03:41:26;17.10;99.90
14349;DHT22;7258;50.376;8.742;2022-08-25T03:43:30;17.00;99.90
14349;DHT22;7258;50.376;8.742;2022-08-25T03:45:33;17.00;99.90
14349;DHT22;7258;50.376;8.742;2022-08-25T03:47:36;16.90;99.90
14349;DHT22;7258;50.376;8.742;2022-08-25T03:49:41;16.90;99.90
14349;DHT22;7258;50.376;8.742;2022-08-25T03:51:46;16.90;99.90
14349;DHT22;7258;50.376;8.742;2022-08-25T03:53:50;16.90;99.90
14349;DHT22;7258;50.376;8.742;2022-08-25T03:55:53;16.90;99.90
14349;DHT22;7258;50.376;8.742;2022-08-25T03:57:56;16.90;99.90
14349;DHT22;7258;50.376;8.742;2022-08-25T03:59:59;16.90;99.90
14349;DHT22;7258;50.376;8.742;2022-08-25T04:02:02;16.90;99.90
14349;DHT22;7258;50.376;8.742;2022-08-25T04:04:06;16.90;99.90
14349;DHT22;7258;50.376;8.742;2022-08-25T04:06:11;16.90;99.90
14349;DHT22;7258;50.376;8.742;2022-08-25T04:08:14;16.90;99.90
14349;DHT22;7258;50.376;8.742;2022-08-25T04:10:19;16.80;99.90
14349;DHT22;7258;50.376;8.742;2022-08-25T04:12:22;16.80;99.90
14349;DHT22;7258;50.376;8.742;2022-08-25T04:14:25;16.80;99.90
14349;DHT22;7258;50.376;8.742;2022-08-25T04:16:30;16.80;99.90
14349;DHT22;7258;50.376;8.742;2022-08-25T04:18:34;16.80;99.90
14349;DHT22;7258;50.376;8.742;2022-08-25T04:20:37;16.80;99.90
14349;DHT22;7258;50.376;8.742;2022-08-25T04:22:48;16.80;99.90
14349;DHT22;7258;50.376;8.742;2022-08-25T04:24:51;16.80;99.90
14349;DHT22;7258;50.376;8.742;2022-08-25T04:26:54;16.70;99.90
14349;DHT22;7258;50.376;8.742;2022-08-25T04:28:59;16.70;99.90
14349;DHT22;7258;50.376;8.742;2022-08-25T04:31:05;16.70;99.90
14349;DHT22;7258;50.376;8.742;2022-08-25T04:33:08;16.70;99.90
14349;DHT22;7258;50.376;8.742;2022-08-25T04:35:11;16.70;99.90
14349;DHT22;7258;50.376;8.742;2022-08-25T04:37:14;16.70;99.90
14349;DHT22;7258;50.376;8.742;2022-08-25T04:39:19;16.70;99.90
14349;DHT22;7258;50.376;8.742;2022-08-25T04:41:25;16.70;99.90
14349;DHT22;7258;50.376;8.742;2022-08-25T04:43:29;16.70;99.90
14349;DHT22;7258;50.376;8.742;2022-08-25T04:45:36;16.70;99.90
14349;DHT22;7258;50.376;8.742;2022-08-25T04:47:39;16.70;99.90
14349;DHT22;7258;50.376;8.742;2022-08-25T04:49:42;16.70;99.90
14349;DHT22;7258;50.376;8.742;2022-08-25T04:51:45;16.70;99.90
14349;DHT22;7258;50.376;8.742;2022-08-25T04:53:49;16.70;99.90
14349;DHT22;7258;50.376;8.742;2022-08-25T04:55:53;16.70;99.90
14349;DHT22;7258;50.376;8.742;2022-08-25T04:57:56;16.60;99.90
14349;DHT22;7258;50.376;8.742;2022-08-25T04:59:59;16.70;99.90
14349;DHT22;7258;50.376;8.742;2022-08-25T05:02:03;16.60;99.90
14349;DHT22;7258;50.376;8.742;2022-08-25T05:04:08;16.70;99.90
14349;DHT22;7258;50.376;8.742;2022-08-25T05:06:29;16.70;99.90
14349;DHT22;7258;50.376;8.742;2022-08-25T05:08:33;16.80;99.90
14349;DHT22;7258;50.376;8.742;2022-08-25T05:10:38;16.80;99.90
14349;DHT22;7258;50.376;8.742;2022-08-25T05:12:44;16.80;99.90
14349;DHT22;7258;50.376;8.742;2022-08-25T05:14:47;16.80;99.90
14349;DHT22;7258;50.376;8.742;2022-08-25T05:16:53;16.90;99.90
14349;DHT22;7258;50.376;8.742;2022-08-25T05:18:57;16.90;99.90
14349;DHT22;7258;50.376;8.742;2022-08-25T05:21:01;17.00;99.90
14349;DHT22;7258;50.376;8.742;2022-08-25T05:23:04;17.00;99.90
14349;DHT22;7258;50.376;8.742;2022-08-25T05:25:09;17.10;99.90
14349;DHT22;7258;50.376;8.742;2022-08-25T05:27:12;17.10;99.90
14349;DHT22;7258;50.376;8.742;2022-08-25T05:29:16;17.20;99.90
14349;DHT22;7258;50.376;8.742;2022-08-25T05:31:21;17.20;99.90
14349;DHT22;7258;50.376;8.742;2022-08-25T05:33:25;17.30;99.90
14349;DHT22;7258;50.376;8.742;2022-08-25T05:35:33;17.40;99.90
14349;DHT22;7258;50.376;8.742;2022-08-25T05:37:36;17.40;99.90
14349;DHT22;7258;50.376;8.742;2022-08-25T05:39:39;17.50;99.90
14349;DHT22;7258;50.376;8.742;2022-08-25T05:41:42;17.50;99.90
14349;DHT22;7258;50.376;8.742;2022-08-25T05:43:47;17.60;99.90
14349;DHT22;7258;50.376;8.742;2022-08-25T05:45:54;17.70;99.90
14349;DHT22;7258;50.376;8.742;2022-08-25T05:47:57;17.80;99.90
14349;DHT22;7258;50.376;8.742;2022-08-25T05:50:00;17.90;99.90
14349;DHT22;7258;50.376;8.742;2022-08-25T05:52:03;18.00;99.90
14349;DHT22;7258;50.376;8.742;2022-08-25T05:54:06;18.00;99.90
14349;DHT22;7258;50.376;8.742;2022-08-25T05:56:09;18.10;99.90
14349;DHT22;7258;50.376;8.742;2022-08-25T05:58:14;18.20;99.90
14349;DHT22;7258;50.376;8.742;2022-08-25T06:00:17;18.30;99.90
14349;DHT22;7258;50.376;8.742;2022-08-25T06:02:22;18.40;99.90
14349;DHT22;7258;50.376;8.742;2022-08-25T06:04:42;18.50;99.90
14349;DHT22;7258;50.376;8.742;2022-08-25T06:06:45;18.60;99.90
14349;DHT22;7258;50.376;8.742;2022-08-25T06:08:49;18.80;99.90
14349;DHT22;7258;50.376;8.742;2022-08-25T06:10:53;18.90;99.90
14349;DHT22;7258;50.376;8.742;2022-08-25T06:12:58;19.10;99.90
14349;DHT22;7258;50.376;8.742;2022-08-25T06:15:02;19.20;99.90
14349;DHT22;7258;50.376;8.742;2022-08-25T06:17:05;19.30;99.90
14349;DHT22;7258;50.376;8.742;2022-08-25T06:19:10;19.50;99.90
14349;DHT22;7258;50.376;8.742;2022-08-25T06:21:13;19.60;99.90
14349;DHT22;7258;50.376;8.742;2022-08-25T06:23:17;19.70;99.90
14349;DHT22;7258;50.376;8.742;2022-08-25T06:25:22;19.70;99.90
14349;DHT22;7258;50.376;8.742;2022-08-25T06:27:25;19.80;99.90
14349;DHT22;7258;50.376;8.742;2022-08-25T06:29:29;19.80;99.90
14349;DHT22;7258;50.376;8.742;2022-08-25T06:31:32;19.90;99.90
14349;DHT22;7258;50.376;8.742;2022-08-25T06:33:35;20.10;99.80
14349;DHT22;7258;50.376;8.742;2022-08-25T06:35:42;20.20;99.50
14349;DHT22;7258;50.376;8.742;2022-08-25T06:37:45;20.30;99.20
14349;DHT22;7258;50.376;8.742;2022-08-25T06:39:49;20.40;98.90
14349;DHT22;7258;50.376;8.742;2022-08-25T06:41:52;20.50;98.70
14349;DHT22;7258;50.376;8.742;2022-08-25T06:43:56;20.60;98.70
14349;DHT22;7258;50.376;8.742;2022-08-25T06:46:09;20.80;98.40
14349;DHT22;7258;50.376;8.742;2022-08-25T06:48:13;20.90;97.90
14349;DHT22;7258;50.376;8.742;2022-08-25T06:50:16;21.00;97.50
14349;DHT22;7258;50.376;8.742;2022-08-25T06:52:20;21.10;97.40
14349;DHT22;7258;50.376;8.742;2022-08-25T06:54:30;21.20;97.40
14349;DHT22;7258;50.376;8.742;2022-08-25T06:56:33;21.30;97.10
14349;DHT22;7258;50.376;8.742;2022-08-25T06:58:36;21.50;96.70
14349;DHT22;7258;50.376;8.742;2022-08-25T07:00:39;21.50;96.50
14349;DHT22;7258;50.376;8.742;2022-08-25T07:02:42;21.60;96.50
14349;DHT22;7258;50.376;8.742;2022-08-25T07:04:45;21.80;96.40
14349;DHT22;7258;50.376;8.742;2022-08-25T07:06:48;21.90;96.40
14349;DHT22;7258;50.376;8.742;2022-08-25T07:08:53;22.10;96.20
14349;DHT22;7258;50.376;8.742;2022-08-25T07:10:56;22.20;96.00
14349;DHT22;7258;50.376;8.742;2022-08-25T07:12:59;22.30;95.80
14349;DHT22;7258;50.376;8.742;2022-08-25T07:15:03;22.50;95.70
14349;DHT22;7258;50.376;8.742;2022-08-25T07:17:22;22.50;95.30
14349;DHT22;7258;50.376;8.742;2022-08-25T07:19:25;22.50;95.10
14349;DHT22;7258;50.376;8.742;2022-08-25T07:21:32;22.60;95.30
14349;DHT22;7258;50.376;8.742;2022-08-25T07:23:37;22.80;95.40
14349;DHT22;7258;50.376;8.742;2022-08-25T07:25:41;23.00;95.40
14349;DHT22;7258;50.376;8.742;2022-08-25T07:27:44;23.20;95.10
14349;DHT22;7258;50.376;8.742;2022-08-25T07:29:47;23.40;95.30
14349;DHT22;7258;50.376;8.742;2022-08-25T07:31:50;23.50;94.80
14349;DHT22;7258;50.376;8.742;2022-08-25T07:33:54;23.60;94.60
14349;DHT22;7258;50.376;8.742;2022-08-25T07:36:14;23.70;94.60
14349;DHT22;7258;50.376;8.742;2022-08-25T07:38:17;23.80;94.50
14349;DHT22;7258;50.376;8.742;2022-08-25T07:40:24;23.90;94.30
14349;DHT22;7258;50.376;8.742;2022-08-25T07:42:29;24.00;94.20
14349;DHT22;7258;50.376;8.742;2022-08-25T07:44:31;24.00;94.30
14349;DHT22;7258;50.376;8.742;2022-08-25T07:46:34;24.00;94.40
14349;DHT22;7258;50.376;8.742;2022-08-25T07:48:38;24.10;94.40
14349;DHT22;7258;50.376;8.742;2022-08-25T07:50:43;24.20;94.30
14349;DHT22;7258;50.376;8.742;2022-08-25T07:52:46;24.30;94.30
14349;DHT22;7258;50.376;8.742;2022-08-25T07:54:55;24.40;94.20
14349;DHT22;7258;50.376;8.742;2022-08-25T07:56:58;24.50;94.20
14349;DHT22;7258;50.376;8.742;2022-08-25T07:59:02;24.70;93.90
14349;DHT22;7258;50.376;8.742;2022-08-25T08:01:06;24.90;93.60
14349;DHT22;7258;50.376;8.742;2022-08-25T08:03:09;25.00;93.30
14349;DHT22;7258;50.376;8.742;2022-08-25T08:05:33;25.00;93.30
14349;DHT22;7258;50.376;8.742;2022-08-25T08:07:37;25.20;93.10
14349;DHT22;7258;50.376;8.742;2022-08-25T08:09:45;25.30;93.30
14349;DHT22;7258;50.376;8.742;2022-08-25T08:11:51;25.50;93.10
14349;DHT22;7258;50.376;8.742;2022-08-25T08:13:56;25.60;93.10
14349;DHT22;7258;50.376;8.742;2022-08-25T08:16:01;25.70;92.80
14349;DHT22;7258;50.376;8.742;2022-08-25T08:18:04;25.90;92.60
14349;DHT22;7258;50.376;8.742;2022-08-25T08:20:10;26.00;92.20
14349;DHT22;7258;50.376;8.742;2022-08-25T08:22:14;26.10;92.00
14349;DHT22;7258;50.376;8.742;2022-08-25T08:24:18;26.20;91.90
14349;DHT22;7258;50.376;8.742;2022-08-25T08:26:41;26.30;91.70
14349;DHT22;7258;50.376;8.742;2022-08-25T08:28:59;26.40;91.50
14349;DHT22;7258;50.376;8.742;2022-08-25T08:31:04;26.50;91.40
14349;DHT22;7258;50.376;8.742;2022-08-25T08:33:11;26.60;91.30
14349;DHT22;7258;50.376;8.742;2022-08-25T08:35:14;26.70;91.20
14349;DHT22;7258;50.376;8.742;2022-08-25T08:37:19;26.80;91.20
14349;DHT22;7258;50.376;8.742;2022-08-25T08:39:24;26.90;91.00
14349;DHT22;7258;50.376;8.742;2022-08-25T08:41:44;27.00;90.80
14349;DHT22;7258;50.376;8.742;2022-08-25T08:44:20;27.10;90.80
14349;DHT22;7258;50.376;8.742;2022-08-25T08:46:48;27.30;91.10
14349;DHT22;7258;50.376;8.742;2022-08-25T08:49:01;27.40;90.50
14349;DHT22;7258;50.376;8.742;2022-08-25T08:51:14;27.50;90.00
14349;DHT22;7258;50.376;8.742;2022-08-25T08:53:24;27.50;89.60
14349;DHT22;7258;50.376;8.742;2022-08-25T08:55:38;27.50;89.60
14349;DHT22;7258;50.376;8.742;2022-08-25T08:57:47;27.60;89.40
14349;DHT22;7258;50.376;8.742;2022-08-25T08:59:54;27.70;89.40
14349;DHT22;7258;50.376;8.742;2022-08-25T09:02:02;27.80;89.60
14349;DHT22;7258;50.376;8.742;2022-08-25T09:04:17;27.90;89.30
14349;DHT22;7258;50.376;8.742;2022-08-25T09:06:29;28.00;89.10
14349;DHT22;7258;50.376;8.742;2022-08-25T09:08:34;28.10;88.90
14349;DHT22;7258;50.376;8.742;2022-08-25T09:10:47;28.10;88.70
14349;DHT22;7258;50.376;8.742;2022-08-25T09:13:00;28.20;88.70
14349;DHT22;7258;50.376;8.742;2022-08-25T09:15:17;28.20;88.20
14349;DHT22;7258;50.376;8.742;2022-08-25T09:17:37;28.30;87.90
14349;DHT22;7258;50.376;8.742;2022-08-25T09:19:53;28.30;87.40
14349;DHT22;7258;50.376;8.742;2022-08-25T09:22:03;28.30;87.10
14349;DHT22;7258;50.376;8.742;2022-08-25T09:24:39;28.30;87.00
14349;DHT22;7258;50.376;8.742;2022-08-25T09:26:54;28.30;86.40
14349;DHT22;7258;50.376;8.742;2022-08-25T09:29:01;28.30;86.70
14349;DHT22;7258;50.376;8.742;2022-08-25T09:31:12;28.40;86.90
14349;DHT22;7258;50.376;8.742;2022-08-25T09:33:21;28.40;87.00
14349;DHT22;7258;50.376;8.742;2022-08-25T09:35:27;28.60;86.70
14349;DHT22;7258;50.376;8.742;2022-08-25T09:37:30;28.80;86.30
14349;DHT22;7258;50.376;8.742;2022-08-25T09:39:33;28.90;85.90
14349;DHT22;7258;50.376;8.742;2022-08-25T09:41:44;29.00;85.30
14349;DHT22;7258;50.376;8.742;2022-08-25T09:43:52;29.10;84.80
14349;DHT22;7258;50.376;8.742;2022-08-25T09:45:58;29.10;84.60
14349;DHT22;7258;50.376;8.742;2022-08-25T09:48:21;29.10;84.60
14349;DHT22;7258;50.376;8.742;2022-08-25T09:50:29;29.00;84.40
14349;DHT22;7258;50.376;8.742;2022-08-25T09:52:37;28.90;84.40
14349;DHT22;7258;50.376;8.742;2022-08-25T09:54:42;28.80;84.80
14349;DHT22;7258;50.376;8.742;2022-08-25T09:56:50;28.80;84.80
14349;DHT22;7258;50.376;8.742;2022-08-25T09:58:55;28.80;84.60
14349;DHT22;7258;50.376;8.742;2022-08-25T10:01:15;28.80;84.80
14349;DHT22;7258;50.376;8.742;2022-08-25T10:03:22;29.00;84.80
14349;DHT22;7258;50.376;8.742;2022-08-25T10:05:26;29.20;84.20
14349;DHT22;7258;50.376;8.742;2022-08-25T10:07:34;29.40;83.50
14349;DHT22;7258;50.376;8.742;2022-08-25T10:09:41;29.80;81.90
14349;DHT22;7258;50.376;8.742;2022-08-25T10:11:45;30.00;80.50
14349;DHT22;7258;50.376;8.742;2022-08-25T10:14:00;30.20;79.10
14349;DHT22;7258;50.376;8.742;2022-08-25T10:16:07;30.40;78.40
14349;DHT22;7258;50.376;8.742;2022-08-25T10:18:28;30.30;78.40
14349;DHT22;7258;50.376;8.742;2022-08-25T10:20:33;30.20;77.80
14349;DHT22;7258;50.376;8.742;2022-08-25T10:22:36;30.00;77.90
14349;DHT22;7258;50.376;8.742;2022-08-25T10:24:40;29.90;78.10
14349;DHT22;7258;50.376;8.742;2022-08-25T10:26:53;30.00;78.20
14349;DHT22;7258;50.376;8.742;2022-08-25T10:29:05;30.30;76.90
14349;DHT22;7258;50.376;8.742;2022-08-25T10:31:18;30.30;76.10
14349;DHT22;7258;50.376;8.742;2022-08-25T10:33:30;30.50;76.70
14349;DHT22;7258;50.376;8.742;2022-08-25T10:35:51;30.70;75.80
14349;DHT22;7258;50.376;8.742;2022-08-25T10:38:05;30.90;75.00
14349;DHT22;7258;50.376;8.742;2022-08-25T10:40:17;31.00;74.70
14349;DHT22;7258;50.376;8.742;2022-08-25T10:42:33;31.10;75.00
14349;DHT22;7258;50.376;8.742;2022-08-25T10:44:43;31.00;74.00
14349;DHT22;7258;50.376;8.742;2022-08-25T10:47:24;30.80;74.00
14349;DHT22;7258;50.376;8.742;2022-08-25T10:49:36;30.50;74.90
14349;DHT22;7258;50.376;8.742;2022-08-25T10:51:53;30.30;75.60
14349;DHT22;7258;50.376;8.742;2022-08-25T10:54:05;29.90;76.50
14349;DHT22;7258;50.376;8.742;2022-08-25T10:56:13;29.90;77.10
14349;DHT22;7258;50.376;8.742;2022-08-25T10:58:24;30.00;77.00
14349;DHT22;7258;50.376;8.742;2022-08-25T11:00:35;30.20;76.60
14349;DHT22;7258;50.376;8.742;2022-08-25T11:03:01;30.40;76.70
14349;DHT22;7258;50.376;8.742;2022-08-25T11:05:11;30.70;75.70
14349;DHT22;7258;50.376;8.742;2022-08-25T11:07:21;31.00;74.70
14349;DHT22;7258;50.376;8.742;2022-08-25T11:09:28;31.30;74.30
14349;DHT22;7258;50.376;8.742;2022-08-25T11:11:34;31.60;73.30
14349;DHT22;7258;50.376;8.742;2022-08-25T11:13:43;31.60;72.50
14349;DHT22;7258;50.376;8.742;2022-08-25T11:15:52;31.70;72.30
14349;DHT22;7258;50.376;8.742;2022-08-25T11:18:16;31.70;72.20
14349;DHT22;7258;50.376;8.742;2022-08-25T11:20:23;31.40;71.80
14349;DHT22;7258;50.376;8.742;2022-08-25T11:22:34;31.10;72.00
14349;DHT22;7258;50.376;8.742;2022-08-25T11:24:45;30.90;72.70
14349;DHT22;7258;50.376;8.742;2022-08-25T11:26:52;30.60;73.50
14349;DHT22;7258;50.376;8.742;2022-08-25T11:29:01;30.40;74.30
14349;DHT22;7258;50.376;8.742;2022-08-25T11:31:06;30.40;74.60
14349;DHT22;7258;50.376;8.742;2022-08-25T11:33:12;30.50;74.20
14349;DHT22;7258;50.376;8.742;2022-08-25T11:35:17;30.60;73.80
14349;DHT22;7258;50.376;8.742;2022-08-25T11:37:26;30.50;73.60
14349;DHT22;7258;50.376;8.742;2022-08-25T11:39:54;30.50;73.70
14349;DHT22;7258;50.376;8.742;2022-08-25T11:42:14;30.70;73.30
14349;DHT22;7258;50.376;8.742;2022-08-25T11:44:38;30.90;73.10
14349;DHT22;7258;50.376;8.742;2022-08-25T11:47:08;31.00;73.60
14349;DHT22;7258;50.376;8.742;2022-08-25T11:49:51;31.00;73.20
14349;DHT22;7258;50.376;8.742;2022-08-25T11:51:57;31.20;72.40
14349;DHT22;7258;50.376;8.742;2022-08-25T11:54:19;31.20;72.60
14349;DHT22;7258;50.376;8.742;2022-08-25T11:56:32;31.20;72.80
14349;DHT22;7258;50.376;8.742;2022-08-25T11:58:45;31.30;72.70
14349;DHT22;7258;50.376;8.742;2022-08-25T12:00:50;31.40;72.10
14349;DHT22;7258;50.376;8.742;2022-08-25T12:02:54;31.50;71.40
14349;DHT22;7258;50.376;8.742;2022-08-25T12:05:05;31.50;71.20
14349;DHT22;7258;50.376;8.742;2022-08-25T12:07:24;31.50;70.70
14349;DHT22;7258;50.376;8.742;2022-08-25T12:09:29;31.70;70.70
14349;DHT22;7258;50.376;8.742;2022-08-25T12:11:49;31.90;70.00
14349;DHT22;7258;50.376;8.742;2022-08-25T12:14:07;32.00;69.30
14349;DHT22;7258;50.376;8.742;2022-08-25T12:16:38;32.00;70.10
14349;DHT22;7258;50.376;8.742;2022-08-25T12:18:44;32.00;69.70
14349;DHT22;7258;50.376;8.742;2022-08-25T12:21:29;32.10;69.20
14349;DHT22;7258;50.376;8.742;2022-08-25T12:23:34;32.40;68.50
14349;DHT22;7258;50.376;8.742;2022-08-25T12:25:48;32.70;68.30
14349;DHT22;7258;50.376;8.742;2022-08-25T12:28:00;32.90;68.20
14349;DHT22;7258;50.376;8.742;2022-08-25T12:30:16;33.10;67.60
14349;DHT22;7258;50.376;8.742;2022-08-25T12:32:38;33.20;67.40
14349;DHT22;7258;50.376;8.742;2022-08-25T12:37:16;33.00;65.60
14349;DHT22;7258;50.376;8.742;2022-08-25T12:39:27;33.00;65.40
14349;DHT22;7258;50.376;8.742;2022-08-25T12:41:33;32.90;64.90
14349;DHT22;7258;50.376;8.742;2022-08-25T12:43:37;32.90;65.20
14349;DHT22;7258;50.376;8.742;2022-08-25T12:45:45;32.90;65.20
14349;DHT22;7258;50.376;8.742;2022-08-25T12:47:49;32.70;65.10
14349;DHT22;7258;50.376;8.742;2022-08-25T12:49:53;32.50;65.40
14349;DHT22;7258;50.376;8.742;2022-08-25T12:52:18;32.30;66.00
14349;DHT22;7258;50.376;8.742;2022-08-25T12:54:40;32.10;66.30
14349;DHT22;7258;50.376;8.742;2022-08-25T12:56:54;32.00;66.60
14349;DHT22;7258;50.376;8.742;2022-08-25T12:59:14;31.90;67.00
14349;DHT22;7258;50.376;8.742;2022-08-25T13:01:25;31.80;66.90
14349;DHT22;7258;50.376;8.742;2022-08-25T13:03:48;31.70;67.10
14349;DHT22;7258;50.376;8.742;2022-08-25T13:06:14;31.70;67.10
14349;DHT22;7258;50.376;8.742;2022-08-25T13:08:40;31.80;67.30
14349;DHT22;7258;50.376;8.742;2022-08-25T13:10:51;31.70;67.40
14349;DHT22;7258;50.376;8.742;2022-08-25T13:13:02;31.70;68.30
14349;DHT22;7258;50.376;8.742;2022-08-25T13:15:11;31.70;68.70
14349;DHT22;7258;50.376;8.742;2022-08-25T13:17:24;31.60;68.70
14349;DHT22;7258;50.376;8.742;2022-08-25T13:19:28;31.60;69.30
14349;DHT22;7258;50.376;8.742;2022-08-25T13:21:38;31.50;69.10
14349;DHT22;7258;50.376;8.742;2022-08-25T13:23:43;31.60;68.90
14349;DHT22;7258;50.376;8.742;2022-08-25T13:25:50;31.80;68.20
14349;DHT22;7258;50.376;8.742;2022-08-25T13:27:55;31.90;68.30
14349;DHT22;7258;50.376;8.742;2022-08-25T13:30:00;32.10;68.40
14349;DHT22;7258;50.376;8.742;2022-08-25T13:32:06;32.20;66.30
14349;DHT22;7258;50.376;8.742;2022-08-25T13:34:17;32.10;66.30
14349;DHT22;7258;50.376;8.742;2022-08-25T13:36:22;31.90;66.00
14349;DHT22;7258;50.376;8.742;2022-08-25T13:39:10;31.80;67.00
14349;DHT22;7258;50.376;8.742;2022-08-25T13:41:21;32.00;67.00